Time;durP1;ratioP1;P1;durP2;ratioP2;P2;SDS_P1;SDS_P2;PMS_P1;PMS_P2;Temp;Humidity;BMP_temperature;BMP_pressure;BME280_temperature;BME280_humidity;BME280_pressure;Samples;Min_cycle;Max_cycle;Signal;HPM_P1;HPM_P2
2022/07/12 00:01:29;;;;;;;7.50;2.95;;;18.20;99.90;;;;;;5005554;28;20072;-70
2022/07/12 00:03:55;;;;;;;5.32;2.58;;;18.10;99.90;;;;;;5006729;28;20038;-70
2022/07/12 00:06:21;;;;;;;4.13;2.20;;;18.10;99.90;;;;;;4993926;28;20034;-71
2022/07/12 00:08:46;;;;;;;4.30;2.33;;;18.00;99.90;;;;;;4988447;28;20030;-70
2022/07/12 00:11:12;;;;;;;4.55;2.58;;;18.00;99.90;;;;;;5005608;28;20165;-70
2022/07/12 00:13:38;;;;;;;4.57;2.85;;;18.00;99.90;;;;;;5004910;28;20036;-70
2022/07/12 00:16:04;;;;;;;4.30;2.40;;;18.00;99.90;;;;;;4986494;28;20041;-70
2022/07/12 00:18:29;;;;;;;5.28;2.53;;;18.00;99.90;;;;;;5009879;28;20038;-69
2022/07/12 00:20:55;;;;;;;3.72;2.10;;;18.00;99.90;;;;;;4986120;28;20038;-69
2022/07/12 00:23:21;;;;;;;4.57;2.58;;;18.10;99.90;;;;;;5005937;28;20718;-69
2022/07/12 00:25:47;;;;;;;4.20;2.20;;;18.10;99.90;;;;;;5007202;28;20080;-69
2022/07/12 00:28:12;;;;;;;4.65;1.90;;;18.10;99.90;;;;;;5006280;28;20037;-69
2022/07/12 00:30:38;;;;;;;5.60;2.10;;;18.10;99.90;;;;;;5001620;28;20026;-69
2022/07/12 00:33:04;;;;;;;5.55;2.20;;;18.00;99.90;;;;;;5005396;28;20026;-70
2022/07/12 00:35:29;;;;;;;3.72;1.60;;;18.00;99.90;;;;;;5005228;28;20046;-70
2022/07/12 00:37:55;;;;;;;4.25;2.10;;;17.90;99.90;;;;;;4987871;28;20042;-69
2022/07/12 00:40:21;;;;;;;4.85;2.10;;;17.80;99.90;;;;;;5009484;28;20042;-69
2022/07/12 00:42:47;;;;;;;4.53;1.83;;;17.80;99.90;;;;;;5009583;28;20037;-69
2022/07/12 00:45:13;;;;;;;5.55;2.20;;;17.80;99.90;;;;;;4991367;28;20037;-70
2022/07/12 00:47:43;;;;;;;3.67;1.73;;;17.80;99.90;;;;;;5010140;28;20029;-69
2022/07/12 00:50:18;;;;;;;4.10;1.70;;;17.80;99.90;;;;;;4999965;28;20061;-69
2022/07/12 00:52:45;;;;;;;3.58;1.67;;;17.80;99.90;;;;;;5006459;28;20030;-68
2022/07/12 00:55:12;;;;;;;3.80;2.00;;;17.70;99.90;;;;;;5008945;28;20113;-69
2022/07/12 00:57:45;;;;;;;4.18;2.28;;;17.60;99.90;;;;;;5009151;28;20578;-68
2022/07/12 01:00:13;;;;;;;3.30;1.95;;;17.50;99.90;;;;;;5009127;28;20034;-69
2022/07/12 01:02:39;;;;;;;3.78;2.05;;;17.50;99.90;;;;;;5011239;28;20061;-68
2022/07/12 01:05:06;;;;;;;3.60;2.10;;;17.50;99.90;;;;;;5007913;28;20104;-68
2022/07/12 01:07:34;;;;;;;3.13;2.15;;;17.50;99.90;;;;;;5020805;28;20088;-68
2022/07/12 01:10:00;;;;;;;4.20;2.53;;;17.50;99.90;;;;;;5008976;28;20488;-69
2022/07/12 01:12:26;;;;;;;4.88;2.50;;;17.50;99.90;;;;;;5005534;28;20670;-70
2022/07/12 01:14:52;;;;;;;4.65;2.13;;;17.50;99.90;;;;;;5009367;28;20053;-71
2022/07/12 01:17:23;;;;;;;4.13;2.47;;;17.40;99.90;;;;;;5008798;28;20395;-69
2022/07/12 01:19:49;;;;;;;4.95;3.00;;;17.40;99.90;;;;;;5007541;28;20041;-71
2022/07/12 01:22:17;;;;;;;5.05;2.72;;;17.40;99.90;;;;;;5008460;28;20120;-70
2022/07/12 01:24:44;;;;;;;4.35;2.72;;;17.40;99.90;;;;;;5008872;28;20040;-70
2022/07/12 01:27:10;;;;;;;6.03;2.90;;;17.40;99.90;;;;;;5008566;28;20684;-70
2022/07/12 01:29:36;;;;;;;4.50;2.53;;;17.40;99.90;;;;;;5009284;28;20511;-69
2022/07/12 01:32:25;;;;;;;4.25;2.72;;;17.40;99.90;;;;;;5008369;28;20030;-70
2022/07/12 01:35:02;;;;;;;6.25;3.00;;;17.40;99.90;;;;;;5010980;28;20045;-70
2022/07/12 01:37:40;;;;;;;3.83;2.60;;;17.30;99.90;;;;;;4995332;28;20026;-70
2022/07/12 01:40:09;;;;;;;5.93;3.13;;;17.30;99.90;;;;;;5007348;28;20245;-70
2022/07/12 01:42:35;;;;;;;4.53;2.60;;;17.20;99.90;;;;;;4991439;28;20036;-70
2022/07/12 01:45:01;;;;;;;5.18;3.20;;;17.10;99.90;;;;;;5007380;28;20045;-70
2022/07/12 01:47:29;;;;;;;5.50;3.15;;;17.10;99.90;;;;;;5024593;28;20048;-70
2022/07/12 01:49:55;;;;;;;5.53;2.72;;;17.00;99.90;;;;;;4998451;28;20029;-70
2022/07/12 01:52:21;;;;;;;4.53;3.05;;;17.00;99.90;;;;;;5007540;28;20044;-70
2022/07/12 01:54:47;;;;;;;5.78;2.97;;;17.00;99.90;;;;;;5009516;28;20021;-70
2022/07/12 01:57:13;;;;;;;4.45;2.75;;;17.00;99.90;;;;;;5008669;28;20030;-71
2022/07/12 01:59:41;;;;;;;5.60;3.55;;;16.90;99.90;;;;;;5007864;28;20128;-71
2022/07/12 02:02:07;;;;;;;4.40;2.65;;;16.80;99.90;;;;;;4988212;28;20595;-70
2022/07/12 02:04:34;;;;;;;5.10;2.60;;;16.80;99.90;;;;;;5008514;28;20030;-70
2022/07/12 02:07:00;;;;;;;5.97;3.33;;;16.90;99.90;;;;;;5010158;28;20100;-70
2022/07/12 02:09:26;;;;;;;5.20;3.25;;;16.90;99.90;;;;;;5007659;28;20090;-70
2022/07/12 02:11:53;;;;;;;4.78;3.20;;;16.90;99.90;;;;;;5007870;28;20046;-70
2022/07/12 02:14:19;;;;;;;4.40;2.92;;;16.80;99.90;;;;;;4988067;28;20495;-70
2022/07/12 02:16:44;;;;;;;4.30;3.13;;;16.80;99.90;;;;;;5003312;28;20117;-70
2022/07/12 02:19:12;;;;;;;5.72;3.17;;;16.80;99.90;;;;;;5007013;28;20033;-70
2022/07/12 02:21:37;;;;;;;4.70;3.17;;;16.80;99.90;;;;;;5007829;28;20052;-70
2022/07/12 02:24:04;;;;;;;4.63;2.75;;;16.90;99.90;;;;;;4994850;28;20602;-71
2022/07/12 02:26:32;;;;;;;4.78;2.85;;;16.90;99.90;;;;;;5007217;28;20673;-70
2022/07/12 02:28:58;;;;;;;8.75;2.85;;;16.90;99.90;;;;;;5021066;28;20038;-69
2022/07/12 02:31:24;;;;;;;4.53;3.10;;;16.90;99.90;;;;;;5007884;28;20084;-70
2022/07/12 02:33:49;;;;;;;5.30;2.90;;;16.90;99.90;;;;;;5006596;28;20112;-70
2022/07/12 02:36:15;;;;;;;5.90;2.70;;;16.80;99.90;;;;;;5006538;28;20485;-69
2022/07/12 02:38:41;;;;;;;5.07;2.80;;;16.80;99.90;;;;;;5009711;28;20906;-69
2022/07/12 02:41:06;;;;;;;5.32;3.22;;;16.80;99.90;;;;;;5011109;28;20077;-69
2022/07/12 02:43:33;;;;;;;7.15;3.03;;;16.80;99.90;;;;;;5006259;28;20408;-69
2022/07/12 02:46:07;;;;;;;5.60;3.00;;;16.80;99.90;;;;;;5011627;28;20116;-69
2022/07/12 02:48:33;;;;;;;5.22;2.95;;;16.80;99.90;;;;;;5006009;28;20073;-70
2022/07/12 02:51:00;;;;;;;5.57;3.00;;;16.80;99.90;;;;;;5006502;28;20033;-69
2022/07/12 02:53:26;;;;;;;4.45;2.88;;;16.80;99.90;;;;;;5005801;28;20049;-69
2022/07/12 02:55:52;;;;;;;5.55;3.00;;;16.70;99.90;;;;;;5007146;28;20042;-69
2022/07/12 02:58:18;;;;;;;5.82;3.38;;;16.70;99.90;;;;;;4999266;28;20044;-69
2022/07/12 03:00:44;;;;;;;4.93;3.10;;;16.70;99.90;;;;;;5004789;28;20613;-69
2022/07/12 03:03:11;;;;;;;5.95;3.05;;;16.70;99.90;;;;;;5006009;28;20494;-69
2022/07/12 03:05:36;;;;;;;6.65;3.70;;;16.70;99.90;;;;;;5008970;28;20049;-70
2022/07/12 03:08:04;;;;;;;6.05;3.40;;;16.70;99.90;;;;;;4986492;28;20042;-69
2022/07/12 03:10:30;;;;;;;5.90;3.30;;;16.70;99.90;;;;;;5005872;28;20037;-70
2022/07/12 03:12:55;;;;;;;5.72;3.20;;;16.70;99.90;;;;;;5006080;28;20076;-70
2022/07/12 03:15:21;;;;;;;5.95;3.05;;;16.70;99.90;;;;;;4989282;28;20034;-69
2022/07/12 03:17:47;;;;;;;4.15;3.22;;;16.70;99.90;;;;;;4989583;28;20030;-70
2022/07/12 03:20:14;;;;;;;4.78;2.90;;;16.60;99.90;;;;;;5008679;28;20116;-69
2022/07/12 03:22:41;;;;;;;7.10;3.40;;;16.60;99.90;;;;;;5012416;28;20492;-69
2022/07/12 03:25:08;;;;;;;6.25;3.33;;;16.60;99.90;;;;;;5004348;28;20087;-68
2022/07/12 03:27:34;;;;;;;6.72;3.40;;;16.60;99.90;;;;;;5006043;28;20746;-70
2022/07/12 03:30:00;;;;;;;4.82;3.25;;;16.50;99.90;;;;;;5021458;28;20038;-69
2022/07/12 03:32:26;;;;;;;6.93;3.65;;;16.50;99.90;;;;;;5006713;28;20029;-68
2022/07/12 03:34:52;;;;;;;6.90;3.55;;;16.40;99.90;;;;;;5008856;28;20099;-68
2022/07/12 03:37:18;;;;;;;6.60;4.60;;;16.40;99.90;;;;;;5012998;28;20116;-69
2022/07/12 03:39:43;;;;;;;5.22;3.50;;;16.40;99.90;;;;;;5010271;28;20040;-68
2022/07/12 03:42:11;;;;;;;5.82;3.28;;;16.40;99.90;;;;;;5006876;28;21156;-71
2022/07/12 03:44:36;;;;;;;6.25;3.53;;;16.40;99.90;;;;;;5007535;28;20029;-70
2022/07/12 03:47:02;;;;;;;5.63;3.85;;;16.30;99.90;;;;;;5006527;28;20034;-71
2022/07/12 03:49:28;;;;;;;5.10;3.40;;;16.20;99.90;;;;;;5005511;28;20663;-70
2022/07/12 03:51:54;;;;;;;6.65;3.53;;;16.10;99.90;;;;;;5006008;28;20548;-69
2022/07/12 03:54:20;;;;;;;7.50;3.50;;;16.10;99.90;;;;;;5005669;28;20385;-69
2022/07/12 03:59:29;;;;;;;5.30;3.38;;;16.00;99.90;;;;;;5006110;28;20037;-69
2022/07/12 04:01:55;;;;;;;5.82;3.50;;;16.00;99.90;;;;;;5006624;28;20037;-69
2022/07/12 04:04:21;;;;;;;7.00;3.45;;;16.00;99.90;;;;;;4993919;28;20041;-69
2022/07/12 04:06:46;;;;;;;6.07;3.45;;;16.00;99.90;;;;;;5003750;28;20495;-69
2022/07/12 04:09:12;;;;;;;4.65;3.30;;;16.00;99.90;;;;;;5005833;28;20041;-68
2022/07/12 04:11:38;;;;;;;5.82;3.67;;;16.10;99.90;;;;;;5006743;28;20034;-68
2022/07/12 04:14:04;;;;;;;6.95;3.33;;;16.00;99.90;;;;;;5010693;28;20484;-69
2022/07/12 04:16:30;;;;;;;5.55;3.38;;;15.90;99.90;;;;;;5012942;28;20118;-69
2022/07/12 04:18:56;;;;;;;5.30;3.53;;;15.90;99.90;;;;;;4992919;28;20183;-70
2022/07/12 04:21:22;;;;;;;7.40;3.45;;;15.90;99.90;;;;;;5010877;28;20037;-68
2022/07/12 04:23:48;;;;;;;6.47;3.10;;;15.90;99.90;;;;;;5011851;28;20483;-70
2022/07/12 04:26:14;;;;;;;8.25;3.70;;;15.90;99.90;;;;;;5010911;28;20033;-70
2022/07/12 04:28:39;;;;;;;6.35;3.70;;;15.90;99.90;;;;;;5006463;28;20040;-71
2022/07/12 04:31:06;;;;;;;6.30;3.47;;;15.90;99.90;;;;;;4997662;28;20585;-71
2022/07/12 04:33:33;;;;;;;7.28;3.80;;;15.90;99.90;;;;;;5010907;28;20116;-70
2022/07/12 04:35:58;;;;;;;6.63;3.65;;;16.00;99.90;;;;;;4992872;28;20029;-70
2022/07/12 04:38:24;;;;;;;7.03;3.47;;;16.00;99.90;;;;;;5011158;28;20038;-68
2022/07/12 04:40:50;;;;;;;6.90;3.80;;;16.00;99.90;;;;;;5011193;28;20038;-68
2022/07/12 04:43:15;;;;;;;5.18;3.33;;;16.10;99.90;;;;;;5010969;28;20033;-71
2022/07/12 04:45:44;;;;;;;6.35;3.38;;;16.20;99.90;;;;;;5010874;28;20033;-70
2022/07/12 04:48:12;;;;;;;5.57;3.15;;;16.30;99.90;;;;;;5010850;28;20068;-69
2022/07/12 04:50:38;;;;;;;5.68;3.10;;;16.30;99.90;;;;;;5011511;28;20050;-68
2022/07/12 04:53:04;;;;;;;5.75;3.60;;;16.40;99.90;;;;;;5009087;28;20052;-68
2022/07/12 04:55:30;;;;;;;6.03;3.20;;;16.40;99.90;;;;;;4992604;28;20107;-68
2022/07/12 04:57:55;;;;;;;6.75;3.17;;;16.40;99.90;;;;;;5010110;28;20113;-70
2022/07/12 05:00:22;;;;;;;5.72;3.25;;;16.50;99.90;;;;;;5010308;28;20069;-69
2022/07/12 05:02:48;;;;;;;5.70;3.38;;;16.50;99.90;;;;;;5010048;28;20040;-69
2022/07/12 05:05:14;;;;;;;6.13;3.13;;;16.50;99.90;;;;;;5008636;28;20037;-68
2022/07/12 05:07:43;;;;;;;6.97;3.58;;;16.50;99.90;;;;;;5010410;28;20105;-69
2022/07/12 05:10:09;;;;;;;5.23;3.60;;;16.60;99.90;;;;;;5009837;28;20029;-69
2022/07/12 05:12:35;;;;;;;7.57;3.83;;;16.70;99.90;;;;;;5009981;28;20092;-68
2022/07/12 05:15:01;;;;;;;7.47;3.20;;;16.70;99.90;;;;;;5009925;28;20040;-71
2022/07/12 05:17:27;;;;;;;5.80;3.35;;;16.80;99.90;;;;;;5007771;28;20041;-69
2022/07/12 05:19:53;;;;;;;4.55;3.20;;;16.90;99.90;;;;;;5013392;28;20038;-69
2022/07/12 05:22:18;;;;;;;7.05;3.42;;;17.00;99.90;;;;;;5006440;28;20053;-69
2022/07/12 05:24:44;;;;;;;7.88;3.72;;;17.10;99.90;;;;;;5007300;28;20044;-69
2022/07/12 05:27:10;;;;;;;7.35;3.72;;;17.20;99.90;;;;;;4990623;28;20034;-70
2022/07/12 05:29:36;;;;;;;6.72;3.70;;;17.30;99.90;;;;;;5014914;28;20164;-70
2022/07/12 05:32:01;;;;;;;5.47;3.50;;;17.40;99.90;;;;;;5007370;28;20047;-72
2022/07/12 05:34:28;;;;;;;5.25;3.40;;;17.40;99.90;;;;;;5004910;28;20518;-68
2022/07/12 05:36:54;;;;;;;4.88;3.78;;;17.40;99.90;;;;;;5007712;28;20451;-71
2022/07/12 05:39:19;;;;;;;7.03;3.92;;;17.40;99.90;;;;;;4991980;28;20037;-68
2022/07/12 05:41:46;;;;;;;5.75;3.55;;;17.40;99.90;;;;;;5009331;28;20034;-69
2022/07/12 05:44:12;;;;;;;7.30;3.97;;;17.50;99.90;;;;;;5009676;28;20084;-69
2022/07/12 05:46:40;;;;;;;7.88;4.07;;;17.50;99.90;;;;;;5009461;28;20520;-69
2022/07/12 05:49:06;;;;;;;7.32;4.20;;;17.50;99.90;;;;;;5017787;28;20116;-68
2022/07/12 05:54:16;;;;;;;6.45;3.95;;;17.50;99.90;;;;;;5009257;28;20032;-69
2022/07/12 05:56:42;;;;;;;7.80;3.95;;;17.50;99.90;;;;;;5008418;28;20701;-69
2022/07/12 05:59:08;;;;;;;6.45;4.03;;;17.50;99.90;;;;;;4991441;28;20105;-68
2022/07/12 06:01:33;;;;;;;7.35;3.88;;;17.50;99.90;;;;;;5007615;28;20507;-70
2022/07/12 06:03:59;;;;;;;4.78;3.28;;;17.60;99.90;;;;;;5008572;28;20036;-68
2022/07/12 06:06:25;;;;;;;5.95;3.85;;;17.60;99.90;;;;;;5008755;28;20091;-68
2022/07/12 06:08:50;;;;;;;7.40;4.50;;;17.70;99.90;;;;;;5007087;28;20042;-68
2022/07/12 06:11:16;;;;;;;7.35;4.25;;;17.70;99.90;;;;;;5010534;28;20036;-69
2022/07/12 06:13:41;;;;;;;7.63;4.20;;;17.80;99.90;;;;;;5008795;28;20030;-69
2022/07/12 06:16:09;;;;;;;6.88;3.83;;;17.90;99.90;;;;;;5006796;28;20042;-69
2022/07/12 06:18:35;;;;;;;8.18;4.32;;;17.90;99.90;;;;;;4989943;28;20113;-68
2022/07/12 06:21:02;;;;;;;6.50;3.88;;;18.00;99.90;;;;;;5011119;28;20129;-69
2022/07/12 06:23:27;;;;;;;6.40;3.80;;;18.10;99.90;;;;;;5007899;28;20064;-69
2022/07/12 06:25:53;;;;;;;6.60;4.30;;;18.20;99.90;;;;;;5000906;28;20117;-69
2022/07/12 06:28:19;;;;;;;7.95;4.57;;;18.20;99.90;;;;;;5001088;28;20476;-68
2022/07/12 06:30:44;;;;;;;5.68;3.70;;;18.30;99.90;;;;;;5010615;28;20037;-70
2022/07/12 06:33:10;;;;;;;7.85;4.28;;;18.40;99.90;;;;;;5008937;28;20029;-69
2022/07/12 06:35:36;;;;;;;6.53;4.35;;;18.40;99.90;;;;;;5008898;28;20038;-69
2022/07/12 06:38:02;;;;;;;5.85;4.70;;;18.50;99.90;;;;;;5008539;28;20033;-68
2022/07/12 06:40:28;;;;;;;7.05;4.28;;;18.70;99.90;;;;;;5007979;28;20038;-71
2022/07/12 06:42:53;;;;;;;8.85;4.10;;;18.70;99.90;;;;;;5005326;28;20042;-69
2022/07/12 06:45:19;;;;;;;6.93;4.03;;;18.80;99.90;;;;;;4997719;28;20029;-70
2022/07/12 06:47:45;;;;;;;8.60;4.15;;;18.90;99.90;;;;;;5004811;28;20037;-70
2022/07/12 06:50:11;;;;;;;7.30;4.28;;;18.90;99.90;;;;;;5009894;28;20021;-69
2022/07/12 06:52:36;;;;;;;7.43;4.07;;;19.00;99.90;;;;;;5013529;28;20034;-69
2022/07/12 06:55:02;;;;;;;7.53;4.55;;;19.10;99.90;;;;;;5004953;28;20030;-69
2022/07/12 06:57:29;;;;;;;7.35;4.03;;;19.20;99.90;;;;;;5007704;28;20030;-69
2022/07/12 06:59:56;;;;;;;5.50;3.70;;;19.30;99.90;;;;;;5019634;28;20034;-69
2022/07/12 07:02:22;;;;;;;6.53;3.92;;;19.40;99.90;;;;;;5003651;28;20033;-70
2022/07/12 07:04:48;;;;;;;7.22;3.63;;;19.60;99.90;;;;;;5013749;28;20037;-69
2022/07/12 07:07:13;;;;;;;5.63;3.50;;;19.60;99.90;;;;;;4985041;28;20562;-70
2022/07/12 07:09:39;;;;;;;5.18;3.50;;;19.80;99.90;;;;;;4986466;28;21010;-70
2022/07/12 07:12:05;;;;;;;6.20;3.70;;;19.90;99.90;;;;;;5006933;28;20102;-69
2022/07/12 07:14:31;;;;;;;6.63;3.60;;;19.90;99.90;;;;;;5004182;28;20471;-70
2022/07/12 07:16:57;;;;;;;6.00;3.70;;;20.00;99.90;;;;;;5007920;28;20033;-69
2022/07/12 07:19:24;;;;;;;8.43;3.60;;;20.10;99.90;;;;;;4995795;28;20088;-70
2022/07/12 07:21:50;;;;;;;5.57;3.35;;;20.20;99.90;;;;;;5006549;28;20409;-69
2022/07/12 07:24:16;;;;;;;6.68;3.17;;;20.30;99.90;;;;;;5002283;28;20118;-70
2022/07/12 07:26:42;;;;;;;7.07;2.72;;;20.50;99.90;;;;;;5003353;28;20034;-69
2022/07/12 07:31:52;;;;;;;5.82;3.00;;;21.10;99.90;;;;;;5005052;28;20617;-70
2022/07/12 07:34:17;;;;;;;7.22;2.90;;;21.50;99.90;;;;;;5006059;28;20050;-70
2022/07/12 07:36:43;;;;;;;7.95;2.70;;;21.70;99.90;;;;;;5006764;28;20034;-69
2022/07/12 07:39:09;;;;;;;5.53;2.58;;;21.90;99.90;;;;;;5006062;28;20604;-70
2022/07/12 07:41:35;;;;;;;4.30;2.10;;;22.10;99.90;;;;;;5001827;28;20113;-70
2022/07/12 07:44:01;;;;;;;4.82;2.10;;;22.30;99.90;;;;;;4989472;28;20571;-70
2022/07/12 07:46:26;;;;;;;6.63;2.40;;;22.50;99.90;;;;;;5003647;28;20030;-71
2022/07/12 07:48:52;;;;;;;3.47;1.98;;;22.70;99.90;;;;;;5004255;28;20492;-75
2022/07/12 07:51:18;;;;;;;4.88;1.73;;;22.90;99.90;;;;;;5001269;28;20034;-73
2022/07/12 07:53:43;;;;;;;3.58;1.77;;;23.00;99.90;;;;;;5022383;28;20069;-72
2022/07/12 07:56:09;;;;;;;3.95;1.90;;;23.20;99.90;;;;;;5007440;28;20033;-72
2022/07/12 07:58:35;;;;;;;4.55;1.85;;;23.40;99.90;;;;;;5007875;28;20150;-71
2022/07/12 08:01:00;;;;;;;5.55;1.85;;;23.60;99.90;;;;;;5007919;28;20045;-72
2022/07/12 08:03:26;;;;;;;3.33;1.80;;;23.80;99.90;;;;;;4990087;28;20034;-72
2022/07/12 08:05:52;;;;;;;4.15;1.38;;;23.90;99.90;;;;;;5008050;28;20034;-71
2022/07/12 08:08:18;;;;;;;3.53;1.20;;;24.00;99.90;;;;;;5007627;28;20109;-71
2022/07/12 08:10:45;;;;;;;3.40;0.90;;;24.20;99.90;;;;;;4991645;28;20447;-71
2022/07/12 08:13:10;;;;;;;4.03;1.20;;;24.50;99.70;;;;;;5001113;28;20484;-70
2022/07/12 08:15:36;;;;;;;4.15;1.52;;;24.60;99.40;;;;;;4989975;28;20049;-70
2022/07/12 08:18:03;;;;;;;4.57;1.27;;;24.80;98.60;;;;;;5000711;28;20463;-72
2022/07/12 08:20:29;;;;;;;2.55;1.00;;;25.00;98.60;;;;;;5007462;28;20049;-74
2022/07/12 08:22:54;;;;;;;3.30;1.08;;;25.10;97.90;;;;;;5007843;28;20038;-73
2022/07/12 08:25:20;;;;;;;2.33;1.00;;;25.20;97.80;;;;;;5007661;28;20034;-70
2022/07/12 08:27:46;;;;;;;3.22;1.30;;;25.30;98.10;;;;;;5007982;28;20034;-72
2022/07/12 08:30:11;;;;;;;3.25;1.27;;;25.40;96.70;;;;;;5007695;28;20028;-70
2022/07/12 08:32:42;;;;;;;3.22;1.25;;;25.50;97.10;;;;;;4990060;28;20037;-72
2022/07/12 08:35:08;;;;;;;3.28;1.20;;;25.50;96.40;;;;;;4989921;28;20054;-72
2022/07/12 08:37:33;;;;;;;4.03;1.27;;;25.30;97.00;;;;;;5007562;28;20040;-68
2022/07/12 08:39:59;;;;;;;3.42;1.40;;;25.20;96.50;;;;;;4974591;28;20038;-69
2022/07/12 08:42:25;;;;;;;2.75;1.40;;;25.20;97.70;;;;;;5001337;28;20041;-70
2022/07/12 08:44:55;;;;;;;3.80;1.27;;;25.20;97.40;;;;;;4996759;28;20029;-75
2022/07/12 08:47:21;;;;;;;3.05;1.13;;;25.20;98.40;;;;;;5007843;28;20112;-72
2022/07/12 08:50:11;;;;;;;4.85;1.42;;;25.40;97.90;;;;;;5006244;28;20124;-74
2022/07/12 08:52:42;;;;;;;4.50;1.17;;;25.50;96.70;;;;;;5007960;28;20441;-72
2022/07/12 08:55:24;;;;;;;3.75;1.33;;;25.50;96.20;;;;;;4989903;28;20034;-73
2022/07/12 08:57:53;;;;;;;5.30;1.38;;;25.50;97.10;;;;;;4989755;28;20042;-72
2022/07/12 09:00:20;;;;;;;4.10;1.10;;;25.60;96.70;;;;;;5010200;28;20048;-72
2022/07/12 09:02:50;;;;;;;4.03;1.23;;;25.70;96.70;;;;;;5011093;28;20044;-72
2022/07/12 09:05:18;;;;;;;5.60;1.20;;;25.80;96.80;;;;;;5011257;28;20027;-71
2022/07/12 09:07:43;;;;;;;3.28;1.20;;;26.00;95.90;;;;;;5010859;28;20092;-72
2022/07/12 09:10:11;;;;;;;3.92;1.17;;;26.00;95.10;;;;;;5010841;28;20038;-73
2022/07/12 09:12:37;;;;;;;3.13;1.30;;;26.00;95.00;;;;;;5010752;28;20025;-72
2022/07/12 09:15:23;;;;;;;2.00;1.15;;;25.90;94.50;;;;;;5003071;28;20049;-73
2022/07/12 09:17:57;;;;;;;3.83;1.30;;;25.80;95.20;;;;;;5010549;28;20400;-72
2022/07/12 09:20:31;;;;;;;3.65;1.50;;;25.70;95.70;;;;;;5010502;28;20029;-72
2022/07/12 09:23:06;;;;;;;2.42;1.10;;;25.70;95.30;;;;;;5010230;28;20033;-72
2022/07/12 09:25:32;;;;;;;3.95;1.65;;;25.70;95.70;;;;;;5010193;28;20072;-72
2022/07/12 09:27:59;;;;;;;2.20;1.10;;;25.70;96.30;;;;;;5010781;28;20044;-72
2022/07/12 09:30:27;;;;;;;4.88;1.40;;;25.70;96.20;;;;;;4992441;28;20037;-73
2022/07/12 09:36:12;;;;;;;4.40;1.50;;;25.70;95.70;;;;;;4987822;28;20516;-72
2022/07/12 09:38:48;;;;;;;3.63;1.33;;;25.80;95.40;;;;;;4987604;28;20535;-73
2022/07/12 09:41:18;;;;;;;4.57;1.45;;;25.80;95.80;;;;;;4988060;28;20133;-73
2022/07/12 09:43:44;;;;;;;3.08;1.25;;;25.90;95.80;;;;;;4987838;28;20215;-73
2022/07/12 09:46:10;;;;;;;3.88;1.27;;;26.00;95.80;;;;;;4987882;28;20042;-73
2022/07/12 09:48:41;;;;;;;4.10;1.25;;;26.00;94.90;;;;;;4987923;28;20231;-73
2022/07/12 09:51:08;;;;;;;3.65;1.30;;;26.10;94.70;;;;;;4987460;28;20030;-73
2022/07/12 09:53:48;;;;;;;5.78;1.60;;;26.10;94.40;;;;;;4987478;28;20128;-74
2022/07/12 09:56:17;;;;;;;4.30;1.20;;;26.10;94.30;;;;;;4971357;28;20057;-73
2022/07/12 09:58:59;;;;;;;5.45;1.48;;;26.10;95.00;;;;;;4987136;28;20552;-72
2022/07/12 10:01:25;;;;;;;2.95;1.30;;;26.10;95.10;;;;;;4952047;28;20141;-74
2022/07/12 10:03:53;;;;;;;3.72;1.10;;;26.10;95.10;;;;;;4968085;28;20145;-72
2022/07/12 10:06:25;;;;;;;4.55;1.17;;;26.00;94.50;;;;;;4971465;28;20133;-71
2022/07/12 10:08:51;;;;;;;4.20;1.30;;;25.90;94.60;;;;;;4987078;28;20046;-72
2022/07/12 10:11:19;;;;;;;3.33;1.23;;;25.70;94.30;;;;;;4988131;28;20049;-72
2022/07/12 10:13:45;;;;;;;3.60;1.23;;;25.50;95.00;;;;;;5009496;28;20061;-73
2022/07/12 10:16:14;;;;;;;6.05;1.50;;;25.50;95.50;;;;;;5009504;28;20108;-71
2022/07/12 10:18:40;;;;;;;5.85;1.58;;;25.50;95.40;;;;;;5009506;28;20458;-72
2022/07/12 10:21:20;;;;;;;5.95;1.80;;;25.50;96.10;;;;;;5009312;28;20121;-73
2022/07/12 10:23:46;;;;;;;4.40;1.50;;;25.60;96.20;;;;;;5009120;28;20030;-73
2022/07/12 10:26:14;;;;;;;3.28;1.45;;;25.60;95.60;;;;;;5009687;28;20029;-73
2022/07/12 10:29:00;;;;;;;2.80;1.30;;;25.60;94.70;;;;;;5009589;28;20033;-73
2022/07/12 10:31:37;;;;;;;2.97;1.38;;;25.70;96.00;;;;;;5009273;28;20037;-72
2022/07/12 10:34:11;;;;;;;3.75;1.45;;;25.80;95.10;;;;;;4991118;28;20053;-71
2022/07/12 10:36:55;;;;;;;3.95;1.52;;;25.80;95.90;;;;;;4991612;28;20715;-71
2022/07/12 10:39:26;;;;;;;3.05;1.30;;;25.90;94.90;;;;;;5008091;28;20080;-71
2022/07/12 10:42:05;;;;;;;2.88;1.38;;;26.00;94.90;;;;;;5010400;28;20041;-69
2022/07/12 10:44:35;;;;;;;3.42;1.27;;;26.10;95.10;;;;;;5000016;28;20404;-69
2022/07/12 10:47:02;;;;;;;4.22;1.30;;;26.20;95.40;;;;;;5007083;28;20033;-70
2022/07/12 10:49:30;;;;;;;5.53;1.52;;;26.40;93.40;;;;;;4978028;28;20361;-69
2022/07/12 10:52:11;;;;;;;2.47;0.98;;;26.50;94.50;;;;;;5005592;28;20084;-68
2022/07/12 10:54:40;;;;;;;4.45;1.35;;;26.60;93.80;;;;;;5003942;28;20113;-71
2022/07/12 10:57:07;;;;;;;4.28;1.50;;;26.70;92.50;;;;;;5005059;28;20062;-70
2022/07/12 10:59:35;;;;;;;3.20;1.30;;;26.60;92.80;;;;;;5006227;28;20099;-70
2022/07/12 11:02:00;;;;;;;3.17;1.40;;;26.50;94.50;;;;;;5007792;28;20038;-70
2022/07/12 11:04:27;;;;;;;3.92;1.20;;;26.60;93.50;;;;;;4990370;28;20263;-68
2022/07/12 11:06:58;;;;;;;5.00;1.40;;;26.60;93.60;;;;;;5005921;28;20117;-69
2022/07/12 11:09:24;;;;;;;2.83;1.33;;;26.80;93.80;;;;;;5006478;28;20861;-69
2022/07/12 11:11:52;;;;;;;4.15;1.42;;;26.90;92.00;;;;;;5003100;28;20026;-69
2022/07/12 11:14:32;;;;;;;3.47;1.63;;;26.90;92.80;;;;;;5004654;28;20068;-68
2022/07/12 11:16:59;;;;;;;2.60;1.35;;;26.80;92.90;;;;;;5014221;28;20037;-69
2022/07/12 11:19:27;;;;;;;2.42;1.40;;;26.50;92.00;;;;;;5008430;28;20443;-68
2022/07/12 11:21:57;;;;;;;2.35;1.40;;;26.00;92.80;;;;;;5008734;28;20069;-70
2022/07/12 11:24:23;;;;;;;3.60;1.60;;;25.70;94.60;;;;;;5001549;28;20044;-70
2022/07/12 11:26:50;;;;;;;3.28;1.30;;;25.60;94.90;;;;;;5011453;28;20116;-70
2022/07/12 11:29:16;;;;;;;6.22;1.50;;;25.80;95.00;;;;;;4993149;28;20041;-70
2022/07/12 11:31:42;;;;;;;3.33;1.48;;;26.30;95.30;;;;;;5011524;28;20033;-70
2022/07/12 11:34:22;;;;;;;5.20;1.40;;;26.90;93.90;;;;;;5008288;28;20053;-71
2022/07/12 11:36:53;;;;;;;3.88;1.63;;;27.50;91.10;;;;;;4997197;28;20554;-70
2022/07/12 11:39:29;;;;;;;3.72;1.40;;;27.70;90.10;;;;;;5006740;28;20049;-71
2022/07/12 11:41:58;;;;;;;3.13;1.30;;;27.60;87.40;;;;;;5003122;28;20049;-69
2022/07/12 11:44:45;;;;;;;3.28;1.50;;;27.80;88.80;;;;;;5006051;28;20038;-68
2022/07/12 11:47:11;;;;;;;2.58;1.30;;;27.90;89.90;;;;;;5007122;28;20057;-69
2022/07/12 11:49:42;;;;;;;3.30;1.55;;;28.10;86.90;;;;;;5001153;28;20041;-70
2022/07/12 11:52:08;;;;;;;3.85;1.40;;;28.20;84.90;;;;;;5005621;28;20034;-70
2022/07/12 11:54:34;;;;;;;3.25;1.40;;;28.10;82.50;;;;;;5008183;28;20045;-70
2022/07/12 11:57:07;;;;;;;5.50;1.65;;;28.10;86.00;;;;;;4995437;28;20033;-69
2022/07/12 11:59:33;;;;;;;6.68;1.42;;;28.10;87.00;;;;;;5011508;28;20033;-69
2022/07/12 12:02:11;;;;;;;4.03;1.55;;;28.10;81.80;;;;;;5012429;28;20400;-69
2022/07/12 12:04:46;;;;;;;6.05;1.65;;;28.20;84.60;;;;;;5003549;28;20030;-70
2022/07/12 12:07:18;;;;;;;3.40;1.33;;;28.30;82.80;;;;;;4993380;28;20040;-72
2022/07/12 12:10:06;;;;;;;3.60;1.60;;;28.40;87.80;;;;;;4989555;28;20065;-72
2022/07/12 12:12:37;;;;;;;3.72;1.40;;;28.30;85.90;;;;;;5008434;28;20519;-73
2022/07/12 12:15:12;;;;;;;3.08;1.40;;;28.20;85.50;;;;;;5007332;28;20040;-73
2022/07/12 12:17:44;;;;;;;3.17;1.50;;;28.20;88.50;;;;;;5007794;28;20038;-72
2022/07/12 12:20:16;;;;;;;3.20;1.33;;;28.10;86.90;;;;;;5007645;28;20041;-73
2022/07/12 12:22:43;;;;;;;3.30;1.50;;;28.00;87.70;;;;;;5007726;28;20121;-73
2022/07/12 12:25:13;;;;;;;6.85;1.80;;;28.00;85.70;;;;;;5010707;28;20037;-73
2022/07/12 12:28:00;;;;;;;3.63;1.65;;;27.90;88.90;;;;;;5009558;28;20033;-74
2022/07/12 12:30:26;;;;;;;2.78;1.42;;;27.80;90.20;;;;;;5024673;28;20034;-72
2022/07/12 12:32:54;;;;;;;5.30;1.58;;;27.70;88.20;;;;;;5008017;28;20041;-71
2022/07/12 12:35:31;;;;;;;6.03;1.60;;;27.70;89.10;;;;;;5010272;28;20045;-71
2022/07/12 12:38:01;;;;;;;3.78;1.58;;;27.70;89.30;;;;;;4997699;28;20045;-73
2022/07/12 12:40:31;;;;;;;3.45;1.50;;;27.80;89.20;;;;;;5004899;28;20038;-68
2022/07/12 12:43:13;;;;;;;3.50;1.42;;;28.00;91.20;;;;;;5005662;28;20034;-68
2022/07/12 12:45:55;;;;;;;4.13;1.50;;;28.10;86.00;;;;;;5004091;28;20038;-67
2022/07/12 12:48:28;;;;;;;4.13;1.40;;;28.00;86.20;;;;;;5007635;28;20087;-68
2022/07/12 12:51:04;;;;;;;2.80;1.40;;;27.80;82.70;;;;;;4991447;28;20381;-68
2022/07/12 12:53:30;;;;;;;4.05;1.35;;;27.50;86.50;;;;;;5011001;28;20037;-68
2022/07/12 12:55:56;;;;;;;5.53;1.42;;;27.20;89.20;;;;;;5026626;28;20088;-68
2022/07/12 12:58:24;;;;;;;3.88;1.30;;;26.90;90.50;;;;;;5008435;28;20065;-66
2022/07/12 13:00:53;;;;;;;4.43;1.98;;;26.70;91.90;;;;;;5007516;28;20065;-68
2022/07/12 13:03:20;;;;;;;4.47;1.50;;;26.50;92.30;;;;;;4993564;28;20030;-68